createdAt,value
2017-03-16T00:00:33.555Z,12.5
2017-03-16T00:01:14.068Z,12.52
2017-03-16T00:01:54.548Z,12.65
2017-03-16T00:02:35.039Z,12.39
2017-03-16T00:03:15.507Z,12.35
2017-03-16T00:03:56.019Z,12.39
2017-03-16T00:04:36.531Z,12.37
2017-03-16T00:05:17.019Z,12.42
2017-03-16T00:05:57.523Z,12.49
2017-03-16T00:06:38.015Z,12.45
2017-03-16T00:07:18.510Z,12.38
2017-03-16T00:07:58.971Z,12.32
2017-03-16T00:08:39.465Z,12.37
2017-03-16T00:09:19.970Z,12.49
2017-03-16T00:10:00.443Z,12.49
2017-03-16T00:10:40.979Z,12.47
2017-03-16T00:11:21.459Z,12.64
2017-03-16T00:12:01.923Z,12.57
2017-03-16T00:12:42.402Z,12.39
2017-03-16T00:13:22.899Z,12.27
2017-03-16T00:14:03.421Z,12.34
2017-03-16T00:14:43.918Z,12.38
2017-03-16T00:15:24.419Z,12.27
2017-03-16T00:16:04.919Z,11.95
2017-03-16T00:16:45.420Z,11.98
2017-03-16T00:17:25.914Z,11.98
2017-03-16T00:18:06.387Z,11.95
2017-03-16T00:18:46.900Z,12.12
2017-03-16T00:19:27.407Z,11.94
2017-03-16T00:20:07.872Z,11.85
2017-03-16T00:20:48.376Z,11.91
2017-03-16T00:21:28.938Z,11.88
2017-03-16T00:22:09.421Z,11.85
2017-03-16T00:22:49.923Z,11.88
2017-03-16T00:23:30.416Z,11.83
2017-03-16T00:24:10.913Z,12.01
2017-03-16T00:24:51.426Z,12.04
2017-03-16T00:25:31.906Z,12.14
2017-03-16T00:26:12.440Z,12.19
2017-03-16T00:26:52.962Z,12.28
2017-03-16T00:27:33.469Z,12.28
2017-03-16T00:28:13.969Z,12.41
2017-03-16T00:28:54.466Z,12.37
2017-03-16T00:29:34.963Z,12.24
2017-03-16T00:30:15.462Z,12.14
2017-03-16T00:30:55.943Z,12.17
2017-03-16T00:31:36.474Z,12.23
2017-03-16T00:32:16.965Z,12.28
2017-03-16T00:32:57.449Z,12.31
2017-03-16T00:33:37.942Z,12.28
2017-03-16T00:34:18.454Z,12.37
2017-03-16T00:34:58.919Z,12.38
2017-03-16T00:35:39.439Z,12.45
2017-03-16T00:36:19.968Z,12.35
2017-03-16T00:37:00.477Z,12.38
2017-03-16T00:37:40.954Z,12.39
2017-03-16T00:38:21.450Z,12.45
2017-03-16T00:39:01.936Z,12.52
2017-03-16T00:39:42.437Z,12.52
2017-03-16T00:40:22.917Z,12.52
2017-03-16T00:41:03.421Z,12.52
2017-03-16T00:41:43.922Z,12.65
2017-03-16T00:42:24.466Z,12.64
2017-03-16T00:43:04.914Z,12.46
2017-03-16T00:43:45.406Z,12.37
2017-03-16T00:44:25.939Z,12.42
2017-03-16T00:45:06.393Z,12.39
2017-03-16T00:45:46.892Z,12.42
2017-03-16T00:46:27.386Z,12.35
2017-03-16T00:47:07.925Z,12.38
2017-03-16T00:47:48.391Z,12.37
2017-03-16T00:48:28.912Z,12.37
2017-03-16T00:49:09.384Z,12.39
2017-03-16T00:49:49.901Z,12.34
2017-03-16T00:50:30.391Z,12.14
2017-03-16T00:51:10.903Z,12.09
2017-03-16T00:51:51.388Z,12.14
2017-03-16T00:52:31.926Z,12.31
2017-03-16T00:53:12.373Z,12.05
2017-03-16T00:53:52.890Z,12.16
2017-03-16T00:54:33.390Z,12.23
2017-03-16T00:55:13.890Z,12.23
2017-03-16T00:55:54.401Z,12.23
2017-03-16T00:56:34.896Z,12.35
2017-03-16T00:57:15.396Z,12.35
2017-03-16T00:57:55.912Z,12.41
2017-03-16T00:58:36.399Z,12.37
2017-03-16T00:59:16.917Z,12.35
2017-03-16T00:59:57.410Z,12.19
2017-03-16T01:00:37.891Z,12.16
2017-03-16T01:01:18.431Z,12.13
2017-03-16T01:01:58.902Z,12.29
2017-03-16T01:02:39.408Z,12.07
2017-03-16T01:03:19.927Z,12.14
2017-03-16T01:04:00.426Z,12.24
2017-03-16T01:04:40.953Z,12.29
2017-03-16T01:05:21.457Z,12.28
2017-03-16T01:06:01.942Z,12.31
2017-03-16T01:06:42.439Z,12.28
2017-03-16T01:07:22.954Z,12.28
2017-03-16T01:08:03.424Z,12.38
2017-03-16T01:08:43.907Z,12.31
2017-03-16T01:09:24.427Z,12.41
2017-03-16T01:10:04.937Z,12.28
2017-03-16T01:10:45.432Z,12.31
2017-03-16T01:11:25.881Z,12.23
2017-03-16T01:12:06.343Z,12.27
2017-03-16T01:12:46.831Z,12.29
2017-03-16T01:13:27.307Z,12.35
2017-03-16T01:14:07.807Z,12.21
2017-03-16T01:14:48.294Z,12.14
2017-03-16T01:15:28.839Z,12.24
2017-03-16T01:16:09.262Z,12.28
2017-03-16T01:16:49.772Z,12.29
2017-03-16T01:17:30.286Z,12.28
2017-03-16T01:18:10.783Z,12.29
2017-03-16T01:18:51.287Z,12.28
2017-03-16T01:19:31.793Z,12.09
2017-03-16T01:20:12.284Z,12.12
2017-03-16T01:20:52.782Z,12.16
2017-03-16T01:21:33.247Z,12.16
2017-03-16T01:22:13.735Z,12.17
2017-03-16T01:22:54.254Z,12.2
2017-03-16T01:23:34.726Z,12.07
2017-03-16T01:24:15.241Z,12.12
2017-03-16T01:24:55.729Z,12.17
2017-03-16T01:25:36.222Z,12.12
2017-03-16T01:26:16.700Z,12.1
2017-03-16T01:26:57.324Z,12.14
2017-03-16T01:27:37.818Z,12.09
2017-03-16T01:28:18.322Z,12.12
2017-03-16T01:28:58.798Z,12.2
2017-03-16T01:29:39.302Z,12.14
2017-03-16T01:30:19.823Z,12.31
2017-03-16T01:31:00.317Z,12.28
2017-03-16T01:31:40.822Z,12.27
2017-03-16T01:32:21.332Z,12.29
2017-03-16T01:33:01.830Z,12.1
2017-03-16T01:33:42.370Z,12.12
2017-03-16T01:34:22.820Z,12.13
2017-03-16T01:35:03.364Z,12.12
2017-03-16T01:35:43.870Z,11.98
2017-03-16T01:36:24.379Z,12.05
2017-03-16T01:37:04.894Z,12.1
2017-03-16T01:37:45.409Z,12.13
2017-03-16T01:38:25.909Z,12.13
2017-03-16T01:39:06.398Z,12.13
2017-03-16T01:39:46.914Z,12.1
2017-03-16T01:40:27.428Z,12.14
2017-03-16T01:41:07.980Z,12.12
2017-03-16T01:41:48.432Z,12.17
2017-03-16T01:42:28.984Z,12.14
2017-03-16T01:43:09.423Z,12.23
2017-03-16T01:43:49.924Z,12.14
2017-03-16T01:44:30.431Z,12.13
2017-03-16T01:45:10.919Z,12.28
2017-03-16T01:45:51.461Z,12.02
2017-03-16T01:46:31.927Z,12.05
2017-03-16T01:47:12.411Z,12.09
2017-03-16T01:47:52.900Z,12.12
2017-03-16T01:48:33.409Z,11.94
2017-03-16T01:49:13.908Z,11.88
2017-03-16T01:49:54.409Z,11.96
2017-03-16T01:50:34.908Z,11.96
2017-03-16T01:51:15.414Z,11.85
2017-03-16T01:51:55.959Z,11.86
2017-03-16T01:52:36.387Z,12.01
2017-03-16T01:53:16.929Z,12.02
2017-03-16T01:53:57.390Z,12.02
2017-03-16T01:54:37.888Z,12.04
2017-03-16T01:55:18.415Z,12.07
2017-03-16T01:55:58.939Z,12.07
2017-03-16T01:56:39.382Z,12.1
2017-03-16T01:57:19.904Z,12.1
2017-03-16T01:58:00.407Z,12.05
2017-03-16T01:58:40.876Z,12.14
2017-03-16T01:59:21.367Z,12.2
2017-03-16T02:00:01.851Z,12.05
2017-03-16T02:00:42.384Z,12.04
2017-03-16T02:01:22.884Z,12.05
2017-03-16T02:02:03.356Z,12.01
2017-03-16T02:02:43.871Z,12.05
2017-03-16T02:03:24.369Z,12.02
2017-03-16T02:04:04.878Z,12.07
2017-03-16T02:04:45.383Z,12.01
2017-03-16T02:05:25.857Z,12.01
2017-03-16T02:06:06.341Z,11.94
2017-03-16T02:06:46.825Z,12.04
2017-03-16T02:07:27.361Z,12.04
2017-03-16T02:08:07.838Z,12.04
2017-03-16T02:08:48.374Z,11.99
2017-03-16T02:09:28.894Z,12.09
2017-03-16T02:10:09.318Z,12.05
2017-03-16T02:10:49.832Z,12.07
2017-03-16T02:11:30.336Z,12.05
2017-03-16T02:12:10.865Z,11.99
2017-03-16T02:12:51.347Z,12.1
2017-03-16T02:13:31.849Z,12.12
2017-03-16T02:14:12.356Z,12.16
2017-03-16T02:14:52.845Z,11.98
2017-03-16T02:15:33.400Z,12.07
2017-03-16T02:16:13.878Z,12.01
2017-03-16T02:16:54.347Z,11.94
2017-03-16T02:17:34.862Z,11.96
2017-03-16T02:18:15.342Z,11.96
2017-03-16T02:18:55.849Z,11.91
2017-03-16T02:19:36.361Z,11.65
2017-03-16T02:20:16.844Z,11.75
2017-03-16T02:20:57.321Z,11.47
2017-03-16T02:21:37.840Z,11.64
2017-03-16T02:22:18.338Z,11.75
2017-03-16T02:22:58.830Z,11.62
2017-03-16T02:23:39.302Z,11.7
2017-03-16T02:24:19.819Z,11.72
2017-03-16T02:25:00.286Z,11.55
2017-03-16T02:25:40.767Z,11.69
2017-03-16T02:26:21.287Z,11.58
2017-03-16T02:27:01.791Z,11.58
2017-03-16T02:27:42.267Z,11.7
2017-03-16T02:28:22.788Z,11.7
2017-03-16T02:29:03.254Z,11.7
2017-03-16T02:29:43.745Z,11.69
2017-03-16T02:30:24.246Z,11.7
2017-03-16T02:31:04.752Z,11.82
2017-03-16T02:31:45.296Z,11.85
2017-03-16T02:32:25.796Z,11.76
2017-03-16T02:33:06.301Z,11.78
2017-03-16T02:33:46.782Z,11.75
2017-03-16T02:34:27.266Z,11.73
2017-03-16T02:35:07.763Z,11.7
2017-03-16T02:35:48.289Z,11.69
2017-03-16T02:36:28.771Z,11.6
2017-03-16T02:37:09.268Z,11.72
2017-03-16T02:37:49.768Z,11.7
2017-03-16T02:38:30.267Z,11.57
2017-03-16T02:39:10.801Z,11.43
2017-03-16T02:39:51.278Z,11.33
2017-03-16T02:40:31.774Z,11.28
2017-03-16T02:41:12.235Z,11.42
2017-03-16T02:41:52.736Z,11.44
2017-03-16T02:42:33.232Z,11.57
2017-03-16T02:43:13.750Z,11.65
2017-03-16T02:43:54.249Z,11.62
2017-03-16T02:44:34.808Z,11.51
2017-03-16T02:45:15.329Z,11.46
2017-03-16T02:45:55.845Z,11.44
2017-03-16T02:46:36.308Z,11.21
2017-03-16T02:47:16.769Z,11.32
2017-03-16T02:47:57.273Z,11.42
2017-03-16T02:48:37.758Z,11.46
2017-03-16T02:49:18.226Z,11.4
2017-03-16T02:49:58.718Z,11.28
2017-03-16T02:50:39.219Z,11.33
2017-03-16T02:51:19.691Z,11.39
2017-03-16T02:52:00.189Z,11.27
2017-03-16T02:52:40.622Z,11.36
2017-03-16T02:53:21.136Z,11.28
2017-03-16T02:54:01.678Z,11.33
2017-03-16T02:54:42.139Z,11.37
2017-03-16T02:55:22.640Z,11.29
2017-03-16T02:56:03.153Z,11.43
2017-03-16T02:56:43.644Z,11.49
2017-03-16T02:57:24.162Z,11.57
2017-03-16T02:58:04.668Z,11.61
2017-03-16T02:58:45.184Z,11.55
2017-03-16T02:59:25.673Z,11.49
2017-03-16T03:00:06.182Z,11.37
2017-03-16T03:00:46.678Z,11.39
2017-03-16T03:01:27.201Z,11.46
2017-03-16T03:02:07.739Z,11.47
2017-03-16T03:02:48.206Z,11.47
2017-03-16T03:03:29.374Z,11.39
2017-03-16T03:04:09.895Z,11.46
2017-03-16T03:04:50.408Z,11.51
2017-03-16T03:07:03.617Z,11.61
2017-03-16T03:07:44.124Z,11.69
2017-03-16T03:08:24.635Z,11.65
2017-03-16T03:09:05.154Z,11.55
2017-03-16T03:09:45.652Z,11.64
2017-03-16T03:10:26.169Z,11.57
2017-03-16T03:11:06.670Z,11.61
2017-03-16T03:11:47.169Z,11.55
2017-03-16T03:12:27.678Z,11.54
2017-03-16T03:13:08.164Z,11.54
2017-03-16T03:13:48.674Z,11.57
2017-03-16T03:14:29.170Z,11.61
2017-03-16T03:15:09.682Z,11.72
2017-03-16T03:15:50.161Z,11.61
2017-03-16T03:16:30.624Z,11.57
2017-03-16T03:17:11.102Z,11.52
2017-03-16T03:17:51.606Z,11.47
2017-03-16T03:18:32.125Z,11.33
2017-03-16T03:19:12.648Z,11.25
2017-03-16T03:19:53.121Z,11.36
2017-03-16T03:20:33.596Z,11.36
2017-03-16T03:21:14.085Z,11.28
2017-03-16T03:21:54.533Z,11.42
2017-03-16T03:22:35.033Z,11.42
2017-03-16T03:23:15.520Z,11.51
2017-03-16T03:23:56.008Z,11.51
2017-03-16T03:24:36.543Z,11.55
2017-03-16T03:25:17.016Z,11.64
2017-03-16T03:25:57.507Z,11.44
2017-03-16T03:26:38.031Z,11.52
2017-03-16T03:27:18.562Z,11.6
2017-03-16T03:27:59.008Z,11.54
2017-03-16T03:28:39.487Z,11.58
2017-03-16T03:29:19.965Z,11.42
2017-03-16T03:30:00.451Z,11.42
2017-03-16T03:30:40.950Z,11.47
2017-03-16T03:31:21.440Z,11.37
2017-03-16T03:32:01.921Z,11.43
2017-03-16T03:32:42.443Z,11.36
2017-03-16T03:33:22.911Z,11.33
2017-03-16T03:34:03.396Z,11.43
2017-03-16T03:34:43.894Z,11.35
2017-03-16T03:35:24.383Z,11.29
2017-03-16T03:36:04.861Z,11.19
2017-03-16T03:36:45.355Z,11.18
2017-03-16T03:37:25.885Z,11.22
2017-03-16T03:38:06.393Z,11.22
2017-03-16T03:38:46.850Z,11.28
2017-03-16T03:39:27.369Z,11.27
2017-03-16T03:40:07.858Z,11.27
2017-03-16T03:40:48.349Z,11.28
2017-03-16T03:41:28.864Z,11.42
2017-03-16T03:42:09.371Z,11.35
2017-03-16T03:42:49.869Z,11.39
2017-03-16T03:43:30.341Z,11.43
2017-03-16T03:44:10.857Z,11.37
2017-03-16T03:44:51.342Z,11.35
2017-03-16T03:45:31.841Z,11.35
2017-03-16T03:46:12.343Z,11.36
2017-03-16T03:46:52.828Z,11.35
2017-03-16T03:47:33.279Z,11.11
2017-03-16T03:48:13.781Z,11.15
2017-03-16T03:48:54.313Z,11.18
2017-03-16T03:49:34.768Z,11.25
2017-03-16T03:50:15.245Z,11.29
2017-03-16T03:50:55.735Z,11.18
2017-03-16T03:51:36.227Z,11.22
2017-03-16T03:52:16.731Z,11.18
2017-03-16T03:52:57.256Z,11.09
2017-03-16T03:53:37.733Z,11.03
2017-03-16T03:54:18.218Z,11.09
2017-03-16T03:54:58.773Z,11.18
2017-03-16T03:55:39.259Z,11.11
2017-03-16T03:56:19.722Z,11.15
2017-03-16T03:57:00.275Z,11.04
2017-03-16T03:57:40.702Z,11.09
2017-03-16T03:58:21.226Z,11.11
2017-03-16T03:59:01.699Z,11.19
2017-03-16T03:59:42.189Z,11.11
2017-03-16T04:00:22.747Z,11.15
2017-03-16T04:01:03.203Z,11.17
2017-03-16T04:01:43.698Z,11.21
2017-03-16T04:02:24.210Z,11.37
2017-03-16T04:03:04.712Z,11.03
2017-03-16T04:03:45.214Z,11.03
2017-03-16T04:04:25.712Z,11.09
2017-03-16T04:05:06.220Z,11.06
2017-03-16T04:05:46.748Z,11.14
2017-03-16T04:06:27.287Z,11.06
2017-03-16T04:07:07.736Z,11.21
2017-03-16T04:07:48.248Z,11.19
2017-03-16T04:08:28.693Z,11.18
2017-03-16T04:09:09.197Z,11.19
2017-03-16T04:09:49.667Z,11.17
2017-03-16T04:10:30.181Z,10.79
2017-03-16T04:11:10.699Z,10.86
2017-03-16T04:11:51.210Z,10.94
2017-03-16T04:12:31.706Z,10.92
2017-03-16T04:13:12.211Z,10.81
2017-03-16T04:13:52.715Z,10.86
2017-03-16T04:14:33.224Z,10.78
2017-03-16T04:15:13.737Z,10.68
2017-03-16T04:15:54.218Z,10.78
2017-03-16T04:16:34.713Z,10.85
2017-03-16T04:17:15.207Z,10.74
2017-03-16T04:17:55.712Z,10.79
2017-03-16T04:18:36.183Z,10.74
2017-03-16T04:19:16.689Z,10.63
2017-03-16T04:19:57.196Z,10.61
2017-03-16T04:20:37.689Z,10.81
2017-03-16T04:21:18.204Z,10.78
2017-03-16T04:21:58.733Z,10.64
2017-03-16T04:22:39.223Z,10.63
2017-03-16T04:23:19.724Z,10.68
2017-03-16T04:24:00.248Z,10.67
2017-03-16T04:24:40.733Z,10.61
2017-03-16T04:25:21.244Z,10.64
2017-03-16T04:26:01.717Z,10.79
2017-03-16T04:26:42.209Z,10.76
2017-03-16T04:27:22.748Z,10.81
2017-03-16T04:28:03.237Z,10.86
2017-03-16T04:28:43.731Z,10.84
2017-03-16T04:29:24.180Z,10.85
2017-03-16T04:30:04.693Z,10.84
2017-03-16T04:30:45.202Z,10.76
2017-03-16T04:31:25.717Z,10.81
2017-03-16T04:32:06.199Z,10.74
2017-03-16T04:32:46.669Z,10.7
2017-03-16T04:33:27.164Z,10.53
2017-03-16T04:34:07.660Z,10.63
2017-03-16T04:34:48.228Z,10.63
2017-03-16T04:35:28.626Z,10.59
2017-03-16T04:36:09.197Z,10.64
2017-03-16T04:36:49.656Z,10.68
2017-03-16T04:37:30.098Z,10.53
2017-03-16T04:38:10.608Z,10.3
2017-03-16T04:38:51.119Z,10.32
2017-03-16T04:39:31.586Z,10.2
2017-03-16T04:40:12.079Z,10.4
2017-03-16T04:40:52.620Z,10.34
2017-03-16T04:41:33.078Z,10.44
2017-03-16T04:42:13.613Z,10.44
2017-03-16T04:42:54.078Z,10.53
2017-03-16T04:43:34.610Z,10.51
2017-03-16T04:44:15.084Z,10.55
2017-03-16T04:44:55.548Z,10.55
2017-03-16T04:45:36.036Z,10.59
2017-03-16T04:46:16.530Z,10.73
2017-03-16T04:46:57.025Z,10.53
2017-03-16T04:47:37.536Z,10.56
2017-03-16T04:48:18.055Z,10.42
2017-03-16T04:48:58.530Z,10.42
2017-03-16T04:49:39.026Z,10.56
2017-03-16T04:50:19.545Z,10.41
2017-03-16T04:51:00.025Z,10.51
2017-03-16T04:51:40.556Z,10.59
2017-03-16T04:52:21.091Z,10.56
2017-03-16T04:53:01.575Z,10.51
2017-03-16T04:53:42.085Z,10.48
2017-03-16T04:54:22.562Z,10.53
2017-03-16T04:55:03.063Z,10.56
2017-03-16T04:55:43.540Z,10.36
2017-03-16T04:56:24.029Z,10.51
2017-03-16T04:57:04.520Z,10.59
2017-03-16T04:57:45.055Z,10.55
2017-03-16T04:58:25.516Z,10.48
2017-03-16T04:59:06.023Z,10.36
2017-03-16T04:59:46.541Z,10.41
2017-03-16T05:00:27.041Z,10.29
2017-03-16T05:01:07.545Z,10.34
2017-03-16T05:01:48.072Z,10.4
2017-03-16T05:02:28.673Z,10.38
2017-03-16T05:03:09.156Z,10.41
2017-03-16T05:03:49.651Z,10.4
2017-03-16T05:04:30.151Z,10.36
2017-03-16T05:05:10.653Z,10.07
2017-03-16T05:05:51.145Z,10.18
2017-03-16T05:06:31.627Z,10.05
2017-03-16T05:07:12.144Z,10.18
2017-03-16T05:07:52.611Z,10.09
2017-03-16T05:08:33.148Z,10.2
2017-03-16T05:09:13.609Z,10.2
2017-03-16T05:09:54.111Z,10.23
2017-03-16T05:10:34.614Z,10.29
2017-03-16T05:11:15.122Z,10.34
2017-03-16T05:11:55.622Z,10.3
2017-03-16T05:12:36.114Z,10.27
2017-03-16T05:13:16.609Z,10.15
2017-03-16T05:13:57.102Z,10.09
2017-03-16T05:14:37.615Z,10.17
2017-03-16T05:15:18.100Z,10.09
2017-03-16T05:15:58.618Z,10.14
2017-03-16T05:16:39.079Z,10.18
2017-03-16T05:17:19.583Z,10.07
2017-03-16T05:18:00.077Z,10.11
2017-03-16T05:18:40.585Z,10.29
2017-03-16T05:19:21.090Z,10.36
2017-03-16T05:20:01.593Z,10.4
2017-03-16T05:20:42.049Z,10.27
2017-03-16T05:21:22.598Z,10.26
2017-03-16T05:22:03.036Z,10.27
2017-03-16T05:22:43.512Z,10.23
2017-03-16T05:23:24.010Z,10.14
2017-03-16T05:24:04.501Z,10.08
2017-03-16T05:24:45.005Z,10.14
2017-03-16T05:25:25.497Z,10.18
2017-03-16T05:26:06.036Z,10.15
2017-03-16T05:26:46.487Z,10.3
2017-03-16T05:27:26.982Z,10.15
2017-03-16T05:28:07.454Z,10.15
2017-03-16T05:28:47.965Z,10.17
2017-03-16T05:29:28.457Z,10.22
2017-03-16T05:30:09.023Z,10.14
2017-03-16T05:30:51.210Z,10.25
2017-03-16T05:31:31.715Z,10.14
2017-03-16T05:32:12.206Z,10.17
2017-03-16T05:32:52.683Z,10.2
2017-03-16T05:33:33.179Z,10.22
2017-03-16T05:34:13.686Z,10.25
2017-03-16T05:34:54.198Z,10.14
2017-03-16T05:35:34.709Z,10.33
2017-03-16T05:36:15.249Z,10.14
2017-03-16T05:36:55.675Z,10.18
2017-03-16T05:37:36.169Z,10.2
2017-03-16T05:38:16.672Z,10.17
2017-03-16T05:38:57.161Z,10.11
2017-03-16T05:39:37.673Z,10.15
2017-03-16T05:40:18.141Z,10.22
2017-03-16T05:40:58.623Z,9.99
2017-03-16T05:41:39.145Z,9.93
2017-03-16T05:42:19.651Z,9.96
2017-03-16T05:43:00.151Z,9.97
2017-03-16T05:43:40.620Z,10.17
2017-03-16T05:44:21.129Z,10.05
2017-03-16T05:45:01.604Z,10.07
2017-03-16T05:45:42.110Z,10.08
2017-03-16T05:46:22.580Z,10.09
2017-03-16T05:47:03.078Z,10.08
2017-03-16T05:47:43.577Z,10.18
2017-03-16T05:48:24.092Z,10.2
2017-03-16T05:49:04.592Z,10.23
2017-03-16T05:49:45.101Z,10.2
2017-03-16T05:50:25.575Z,10.14
2017-03-16T05:51:06.099Z,10.27
2017-03-16T05:51:46.579Z,10.34
2017-03-16T05:52:27.097Z,10.26
2017-03-16T05:53:07.579Z,10.12
2017-03-16T05:53:48.112Z,10.3
2017-03-16T05:54:28.561Z,10.29
2017-03-16T05:55:09.084Z,10.34
2017-03-16T05:55:49.560Z,10.3
2017-03-16T05:56:30.052Z,10.17
2017-03-16T05:57:10.566Z,10.33
2017-03-16T05:57:51.054Z,10.36
2017-03-16T05:58:31.568Z,10.33
2017-03-16T05:59:12.096Z,10.34
2017-03-16T05:59:52.566Z,10.34
2017-03-16T06:00:33.042Z,10.38
2017-03-16T06:01:13.563Z,10.36
2017-03-16T06:01:54.055Z,10.36
2017-03-16T06:02:34.559Z,10.53
2017-03-16T06:03:15.052Z,10.34
2017-03-16T06:03:55.569Z,10.27
2017-03-16T06:04:36.365Z,10.09
2017-03-16T06:05:16.928Z,10.27
2017-03-16T06:05:57.405Z,10.23
2017-03-16T06:06:37.893Z,10.33
2017-03-16T06:07:18.424Z,10.15
2017-03-16T06:07:58.896Z,10.15
2017-03-16T06:08:39.413Z,10.17
2017-03-16T06:09:19.900Z,10.32
2017-03-16T06:10:00.410Z,10.41
2017-03-16T06:10:40.900Z,10.4
2017-03-16T06:11:21.424Z,10.52
2017-03-16T06:12:01.911Z,10.55
2017-03-16T06:12:42.387Z,10.55
2017-03-16T06:13:23.005Z,10.51
2017-03-16T06:14:03.396Z,10.55
2017-03-16T06:14:44.106Z,10.61
2017-03-16T06:15:24.392Z,10.67
2017-03-16T06:16:04.904Z,10.68
2017-03-16T06:16:45.435Z,10.66
2017-03-16T06:17:25.902Z,10.76
2017-03-16T06:18:06.397Z,10.86
2017-03-16T06:18:46.902Z,10.85
2017-03-16T06:19:27.365Z,10.88
2017-03-16T06:20:07.865Z,10.94
2017-03-16T06:20:48.353Z,10.96
2017-03-16T06:21:28.832Z,11.07
2017-03-16T06:22:09.387Z,11.11
2017-03-16T06:22:49.851Z,11.17
2017-03-16T06:23:30.359Z,11.18
2017-03-16T06:24:10.857Z,11.25
2017-03-16T06:24:51.376Z,11.35
2017-03-16T06:25:31.824Z,11.19
2017-03-16T06:26:12.323Z,11.19
2017-03-16T06:26:52.898Z,11.21
2017-03-16T06:27:33.424Z,11.33
2017-03-16T06:28:13.896Z,11.36
2017-03-16T06:28:54.369Z,11.39
2017-03-16T06:29:34.903Z,11.49
2017-03-16T06:30:15.469Z,11.46
2017-03-16T06:30:55.932Z,11.57
2017-03-16T06:31:36.427Z,11.52
2017-03-16T06:32:16.866Z,11.61
2017-03-16T06:32:57.361Z,11.67
2017-03-16T06:33:37.934Z,11.76
2017-03-16T06:34:18.398Z,11.79
2017-03-16T06:34:58.888Z,11.82
2017-03-16T06:35:39.404Z,11.86
2017-03-16T06:36:19.900Z,11.95
2017-03-16T06:37:00.395Z,11.8
2017-03-16T06:37:40.913Z,11.69
2017-03-16T06:38:21.456Z,11.79
2017-03-16T06:39:01.971Z,11.91
2017-03-16T06:39:42.433Z,12.02
2017-03-16T06:40:22.971Z,11.96
2017-03-16T06:41:03.456Z,11.99
2017-03-16T06:41:43.915Z,12.02
2017-03-16T06:42:24.399Z,12.02
2017-03-16T06:43:04.878Z,12.09
2017-03-16T06:43:45.387Z,12.01
2017-03-16T06:44:25.931Z,12.01
2017-03-16T06:45:06.389Z,12.09
2017-03-16T06:45:46.821Z,12.17
2017-03-16T06:46:27.357Z,12.24
2017-03-16T06:47:07.935Z,12.29
2017-03-16T06:47:48.761Z,12.31
2017-03-16T06:48:33.639Z,12.17
2017-03-16T06:49:13.658Z,12.1
2017-03-16T06:49:54.251Z,12.13
2017-03-16T06:50:35.135Z,12.17
2017-03-16T06:51:15.405Z,12.2
2017-03-16T06:51:55.904Z,12.29
2017-03-16T06:52:36.389Z,12.28
2017-03-16T06:53:16.861Z,12.27
2017-03-16T06:53:57.355Z,12.28
2017-03-16T06:54:37.888Z,12.31
2017-03-16T06:55:18.392Z,12.12
2017-03-16T06:55:59.573Z,12.05
2017-03-16T06:56:39.851Z,12.12
2017-03-16T06:57:20.433Z,12.13
2017-03-16T06:58:00.940Z,12.24
2017-03-16T06:58:41.434Z,12.14
2017-03-16T06:59:21.918Z,12.17
2017-03-16T07:00:02.435Z,12.13
2017-03-16T07:00:42.936Z,12.13
2017-03-16T07:01:23.454Z,12.29
2017-03-16T07:02:03.950Z,12.23
2017-03-16T07:02:44.434Z,12.41
2017-03-16T07:03:24.945Z,12.24
2017-03-16T07:04:05.459Z,12.38
2017-03-16T07:04:45.979Z,12.28
2017-03-16T07:05:26.480Z,12.34
2017-03-16T07:06:06.998Z,12.1
2017-03-16T07:06:47.556Z,12.21
2017-03-16T07:07:28.179Z,12.05
2017-03-16T07:08:08.649Z,11.95
2017-03-16T07:08:49.144Z,12.12
2017-03-16T07:09:29.638Z,12.07
2017-03-16T07:10:10.178Z,12.21
2017-03-16T07:10:50.659Z,12.27
2017-03-16T07:11:31.156Z,12.39
2017-03-16T07:12:11.674Z,12.52
2017-03-16T07:12:52.177Z,12.6
2017-03-16T07:13:32.696Z,12.67
2017-03-16T07:14:13.235Z,12.71
2017-03-16T07:14:53.729Z,12.87
2017-03-16T07:15:34.288Z,12.86
2017-03-16T07:16:14.770Z,13.04
2017-03-16T07:16:55.301Z,13.29
2017-03-16T07:17:35.780Z,13.2
2017-03-16T07:18:16.299Z,13.25
2017-03-16T07:18:56.837Z,13.26
2017-03-16T07:19:37.292Z,13.55
2017-03-16T07:20:17.802Z,13.46
2017-03-16T07:20:58.302Z,13.55
2017-03-16T07:21:38.785Z,13.57
2017-03-16T07:22:19.278Z,13.57
2017-03-16T07:22:59.801Z,13.57
2017-03-16T07:23:40.298Z,13.79
2017-03-16T07:24:20.765Z,13.63
2017-03-16T07:25:01.257Z,13.44
2017-03-16T07:25:41.796Z,13.08
2017-03-16T07:26:22.295Z,13.45
2017-03-16T07:27:02.809Z,13.48
2017-03-16T07:27:43.279Z,13.2
2017-03-16T07:28:23.754Z,12.95
2017-03-16T07:29:04.267Z,13.11
2017-03-16T07:29:44.803Z,13.2
2017-03-16T07:30:25.305Z,13.32
2017-03-16T07:31:05.823Z,13.42
2017-03-16T07:31:46.317Z,13.57
2017-03-16T07:32:26.846Z,13.63
2017-03-16T07:33:07.358Z,13.57
2017-03-16T07:33:47.873Z,13.49
2017-03-16T07:34:28.378Z,13.42
2017-03-16T07:35:08.885Z,13.45
2017-03-16T07:35:49.416Z,13.64
2017-03-16T07:36:29.925Z,13.62
2017-03-16T07:37:10.442Z,13.66
2017-03-16T07:37:50.917Z,13.63
2017-03-16T07:38:31.413Z,13.59
2017-03-16T07:39:11.908Z,13.55
2017-03-16T07:39:52.421Z,13.55
2017-03-16T07:40:32.927Z,13.57
2017-03-16T07:41:13.403Z,13.6
2017-03-16T07:41:53.900Z,13.64
2017-03-16T07:42:34.438Z,13.6
2017-03-16T07:43:14.938Z,13.62
2017-03-16T07:43:55.455Z,13.66
2017-03-16T07:44:36.000Z,13.73
2017-03-16T07:45:16.536Z,13.63
2017-03-16T07:45:56.980Z,13.77
2017-03-16T07:46:37.477Z,13.77
2017-03-16T07:47:17.962Z,13.89
2017-03-16T07:47:58.478Z,13.95
2017-03-16T07:48:38.961Z,13.95
2017-03-16T07:49:19.464Z,13.77
2017-03-16T07:49:59.963Z,13.85
2017-03-16T07:50:40.490Z,13.75
2017-03-16T07:51:20.963Z,13.78
2017-03-16T07:52:01.482Z,13.84
2017-03-16T07:52:41.964Z,13.88
2017-03-16T07:53:22.468Z,14.03
2017-03-16T07:54:03.004Z,13.95
2017-03-16T07:54:43.467Z,13.84
2017-03-16T07:55:23.962Z,14
2017-03-16T07:56:04.496Z,14.02
2017-03-16T07:56:44.952Z,14
2017-03-16T07:57:25.467Z,14.22
2017-03-16T07:58:05.940Z,14.24
2017-03-16T07:58:46.457Z,14.45
2017-03-16T07:59:26.949Z,14.46
2017-03-16T08:00:07.440Z,14.27
2017-03-16T08:00:47.916Z,14.27
2017-03-16T08:01:28.411Z,14.37
2017-03-16T08:02:08.896Z,14.32
2017-03-16T08:02:49.391Z,14.39
2017-03-16T08:03:29.919Z,14.28
2017-03-16T08:04:10.414Z,14.22
2017-03-16T08:04:50.918Z,14.42
2017-03-16T08:05:31.474Z,14.39
2017-03-16T08:06:11.951Z,14.46
2017-03-16T08:06:52.424Z,14.61
2017-03-16T08:07:33.666Z,14.57
2017-03-16T08:08:14.160Z,14.51
2017-03-16T08:08:54.710Z,14.51
2017-03-16T08:09:35.221Z,14.25
2017-03-16T08:10:15.678Z,14.28
2017-03-16T08:10:56.185Z,14.37
2017-03-16T08:11:36.693Z,14.52
2017-03-16T08:12:17.173Z,14.47
2017-03-16T08:12:57.700Z,14.6
2017-03-16T08:13:38.223Z,14.57
2017-03-16T08:14:18.712Z,14.62
2017-03-16T08:14:59.174Z,14.78
2017-03-16T08:15:39.692Z,14.75
2017-03-16T08:16:20.200Z,14.88
2017-03-16T08:17:00.674Z,14.99
2017-03-16T08:17:41.177Z,14.94
2017-03-16T08:18:21.688Z,14.89
2017-03-16T08:19:02.218Z,14.91
2017-03-16T08:19:42.738Z,14.81
2017-03-16T08:20:23.349Z,14.8
2017-03-16T08:21:03.860Z,14.84
2017-03-16T08:21:44.409Z,14.84
2017-03-16T08:22:24.881Z,14.75
2017-03-16T08:23:05.474Z,14.84
2017-03-16T08:23:45.917Z,14.91
2017-03-16T08:24:26.421Z,14.99
2017-03-16T08:25:06.908Z,14.94
2017-03-16T08:25:47.399Z,14.96
2017-03-16T08:26:27.926Z,14.6
2017-03-16T08:27:08.387Z,14.5
2017-03-16T08:27:48.904Z,14.5
2017-03-16T08:28:29.390Z,14.25
2017-03-16T08:29:09.890Z,14.35
2017-03-16T08:29:50.407Z,14.54
2017-03-16T08:30:30.919Z,14.54
2017-03-16T08:31:11.438Z,14.65
2017-03-16T08:31:51.932Z,14.64
2017-03-16T08:32:32.415Z,14.64
2017-03-16T08:33:12.934Z,14.68
2017-03-16T08:33:53.452Z,14.54
2017-03-16T08:34:34.014Z,14.58
2017-03-16T08:35:14.519Z,14.61
2017-03-16T08:35:55.018Z,14.4
2017-03-16T08:36:35.508Z,14.45
2017-03-16T08:37:16.015Z,14.52
2017-03-16T08:37:56.496Z,14.6
2017-03-16T08:38:36.999Z,14.7
2017-03-16T08:39:17.533Z,14.7
2017-03-16T08:39:58.045Z,14.78
2017-03-16T08:40:38.569Z,14.78
2017-03-16T08:41:19.054Z,14.77
2017-03-16T08:41:59.527Z,14.86
2017-03-16T08:42:40.052Z,14.84
2017-03-16T08:43:20.577Z,14.83
2017-03-16T08:44:01.060Z,14.72
2017-03-16T08:44:41.602Z,14.77